Williamsburg, Williamsburg Jamestown Airport (KJGG)

NameWilliamsburg Jamestown Airport
CityWilliamsburg
CountryUnited States
ICAOKJGG
IATA
Altitude15 m
CoordinatesGoogle Map
Live Air TrafficLiveATC.net
METARKJGG 180055Z AUTO 00000KT 10SM OVC080 05/01 A3022 RMK AO1
2019-01-18 00:55:00 Wind: North (0°) 0 m/s - Visibility: 16093.4 m - Temperature: 5 °C - Dew point: 1 °C - Humidity: 75.6% - Pressure: 1023.37 hPa
Statistics

The table below shows the detailed information of all flights to/from Williamsburg, Williamsburg Jamestown Airport (KJGG).

Ident Aircraft Coming fromFrom Going toTo Owner nameOwnerSpotted durationDurationDate
N343EC - LJ60 - Aerolineas Mas Aerolineas Mas N343EC LEARJET 60 LJ60 Williamsburg, United States (KJGG) KJGG
139 km
Szczechin, Poland (OCW) OCW Ascend Enterprises Llc Ascend Enterprises Llc - - Mon, 14 Jan 2019 15:08:37 +0000 14/1/2019 3:08 pm
N343EC - LJ60 - Aerolineas Mas Aerolineas Mas N343EC LEARJET 60 LJ60 Williamsburg, United States (KJGG) KJGG
3616 km
Szczechin, Poland (OCW) OCW Ascend Enterprises Llc Ascend Enterprises Llc 00:09:25 00:09:25 Fri, 16 Nov 2018 19:40:19 +0000 16/11/2018 7:40 pm
Fri, 16 Nov 2018 19:49:44 +0000 16/11/2018 7:49 pm
N343EC - LJ60 - Aerolineas Mas Aerolineas Mas N343EC LEARJET 60 LJ60 Williamsburg, United States (KJGG) KJGG
3680 km
Szczechin, Poland (OCW) OCW Ascend Enterprises Llc Ascend Enterprises Llc - - Fri, 16 Nov 2018 18:00:33 +0000 16/11/2018 6:00 pm